Date,TemperatureHighF,TemperatureAvgF,TemperatureLowF,DewpointHighF,DewpointAvgF,DewpointLowF,HumidityHigh,HumidityAvg,HumidityLow,PressureMaxIn,PressureMinIn,WindSpeedMaxMPH,WindSpeedAvgMPH,GustSpeedMaxMPH,PrecipitationSumIn
2012-10-24,68,66,62,67,64,62,100,94,89,29.82,29.64,4,0,7,0.00
2012-10-25,67,57,39,64,53,31,91,86,73,29.97,29.48,9,2,16,0.00
2012-10-26,46,40,34,33,28,25,78,65,52,30.24,29.97,5,2,12,0.00
2012-10-27,47,39,33,27,23,18,73,55,33,30.27,30.20,3,0,8,0.00
2012-10-28,50,38,30,24,23,21,71,56,35,30.29,30.22,1,0,4,0.00
2012-10-29,51,39,28,29,23,20,71,56,34,30.28,30.12,1,0,3,0.00
2012-10-30,46,38,34,27,23,19,72,56,34,30.12,29.83,5,1,7,0.00
2012-10-31,49,38,32,35,23,16,100,55,35,29.83,29.77,6,1,11,0.00
2012-11-1,49,41,34,33,25,16,65,52,42,29.88,29.75,7,1,8,0.00
2012-11-2,48,38,30,29,25,22,73,60,42,30.08,29.88,1,0,3,0.00
2012-11-3,45,37,32,28,25,22,69,61,52,30.17,30.10,3,0,4,0.00
2012-11-4,48,36,27,30,24,19,75,63,45,30.17,30.09,1,0,3,0.00
2012-11-5,43,34,27,29,24,19,76,65,53,30.16,29.98,2,0,3,0.00
2012-11-6,38,36,30,35,31,22,91,83,72,29.99,29.73,4,1,7,0.00
2012-11-7,43,38,36,37,34,32,87,83,76,30.05,29.83,2,0,3,0.00
2012-11-8,50,42,38,37,34,33,83,73,59,30.04,29.91,6,1,9,0.00
2012-11-9,46,42,37,40,36,31,82,78,72,30.01,29.95,3,0,5,0.00
2012-11-10,59,48,41,54,44,36,88,84,79,29.98,29.63,4,1,6,0.00
2012-11-11,59,52,34,53,46,26,91,80,68,29.78,29.57,6,2,12,0.00
2012-11-12,33,29,27,26,19,16,76,66,56,30.14,29.78,0,0,0,0.00
2012-11-13,40,32,25,23,20,16,72,62,46,30.32,30.14,3,0,6,0.00
2012-11-14,48,39,33,32,26,-100,72,61,49,30.30,30.18,6,2,8,0.00
2012-11-15,53,42,36,33,30,27,73,63,43,30.28,30.12,4,1,8,0.00
2012-11-16,44,37,30,33,27,21,80,68,58,30.40,30.26,3,0,5,0.00
2012-11-17,52,43,37,39,34,32,83,73,58,30.37,30.29,4,1,7,0.00
2012-11-18,56,46,39,36,32,31,75,60,41,30.29,30.16,7,1,12,0.00
2012-11-19,50,47,41,49,36,31,100,67,59,30.16,29.98,4,0,5,0.00
2012-11-20,58,46,37,42,36,30,80,70,53,30.06,29.98,3,0,5,0.00
2012-11-21,58,47,35,42,38,29,87,71,52,30.05,29.83,4,2,8,0.00
2012-11-22,62,50,37,44,39,27,81,67,51,29.83,29.55,12,3,17,0.00
2012-11-23,37,29,26,27,18,13,72,64,59,30.11,29.69,13,4,20,0.00
2012-11-24,35,28,24,17,14,12,63,55,44,30.12,29.77,4,1,7,0.00
2012-11-25,38,32,29,25,21,14,75,64,53,29.97,29.70,6,1,11,0.00
2012-11-26,30,26,17,20,12,6,69,57,44,30.25,29.97,6,1,8,0.00
2012-11-27,33,26,16,18,12,5,67,56,45,30.24,30.03,5,1,7,0.00
2012-11-28,38,31,24,21,19,14,72,60,49,30.21,30.05,4,1,6,0.00
2012-11-29,44,35,30,28,24,21,78,66,52,30.07,30.00,2,0,5,0.00
2012-11-30,35,32,29,30,26,23,82,80,77,30.11,30.03,4,1,6,0.00
2012-12-1,47,41,35,43,36,29,90,83,76,30.08,29.72,3,1,4,0.00
2012-12-2,47,42,40,44,38,35,90,84,80,29.95,29.74,4,0,5,0.00
2012-12-3,58,48,40,58,46,36,99,90,79,29.92,29.56,9,2,10,0.00
2012-12-4,46,38,26,38,25,11,80,61,46,30.23,29.80,7,2,13,0.00
2012-12-5,34,29,22,24,16,12,72,59,49,30.32,30.04,5,1,6,0.00
2012-12-6,43,37,32,35,27,-100,78,71,67,30.04,29.72,8,2,9,0.00
2012-12-7,39,35,32,28,24,22,72,64,56,29.92,29.81,3,0,5,0.00
2012-12-8,40,33,29,25,21,18,75,63,48,30.03,29.89,2,0,2,0.00
2012-12-9,33,32,30,27,24,20,80,74,66,30.03,29.64,2,0,4,0.00
2012-12-10,35,29,25,24,22,17,79,73,63,29.80,29.64,1,0,3,0.00
2012-12-11,28,25,22,25,17,15,100,71,64,29.93,29.75,5,1,8,0.00
2012-12-12,39,32,18,28,22,10,73,66,58,30.02,29.91,11,2,11,0.00
2012-12-13,46,36,27,27,22,18,69,58,44,30.01,29.91,5,1,7,0.00
2012-12-14,42,33,24,29,25,16,80,71,58,30.10,29.90,3,1,4,0.00
2012-12-15,41,38,35,36,33,29,82,80,78,29.90,29.43,4,1,6,0.00
2012-12-16,40,38,34,34,32,27,79,78,75,29.62,29.42,7,1,8,0.00
2012-12-17,34,30,28,28,22,19,77,71,67,29.65,29.60,5,1,9,0.00
2012-12-18,34,30,27,24,22,19,74,69,64,29.74,29.57,1,0,3,0.00
2012-12-19,35,32,27,29,24,20,100,72,68,29.95,29.71,1,0,3,0.00
2012-12-20,34,31,29,28,25,23,79,77,71,29.84,29.36,1,0,3,0.00
2012-12-21,31,25,17,23,16,7,75,68,62,30.07,29.54,6,2,9,0.00
2012-12-22,31,22,11,16,10,3,69,62,52,30.06,29.83,2,0,5,0.00
2012-12-23,33,24,19,18,13,9,76,64,51,29.95,29.83,4,1,5,0.00
2012-12-24,30,23,19,15,12,9,67,62,52,30.04,29.85,2,0,4,0.00
2012-12-25,30,19,12,14,8,3,67,60,48,30.27,30.04,4,0,4,0.00
2012-12-26,30,20,12,17,10,4,72,65,55,30.22,30.07,1,0,1,0.00
2012-12-27,30,25,22,16,14,12,70,63,53,30.14,30.04,1,0,2,0.00
2012-12-28,28,25,21,20,16,12,75,70,65,30.04,29.83,1,0,2,0.00
2012-12-29,32,26,22,22,18,13,75,69,63,30.01,29.80,3,0,7,0.00
2012-12-30,27,21,15,15,11,6,73,65,51,30.12,29.79,4,1,6,0.00
2012-12-31,26,21,10,17,10,-3,75,64,50,30.05,29.78,6,1,9,0.00
2013-1-1,20,11,1,6,-1,-9,62,57,44,30.10,29.96,5,1,7,0.00